createdAt,value
2023-03-24T08:20:56.955Z,23.6364
2023-03-24T08:21:58.246Z,23.5109
2023-03-24T08:22:59.663Z,23.4824
2023-03-24T08:24:00.981Z,23.4898
2023-03-24T08:25:02.374Z,23.4795
2023-03-24T10:04:00.008Z,22.2766
2023-03-24T11:33:34.940Z,12.3923
2023-03-24T11:34:28.426Z,12.4424
2023-03-24T11:35:41.420Z,12.5058
2023-03-24T11:36:33.982Z,12.5889
2023-03-24T11:37:36.025Z,12.6677
2023-03-24T11:38:37.971Z,12.7612
2023-03-24T11:39:39.934Z,12.8426
2023-03-24T11:40:41.961Z,12.9145
2023-03-24T11:41:43.979Z,12.9722
2023-03-24T11:42:46.130Z,13.0225
2023-03-24T11:43:48.153Z,13.0662
2023-03-24T11:44:50.113Z,13.1038
2023-03-24T11:45:52.494Z,13.1283
2023-03-24T11:47:56.686Z,13.1262
2023-03-24T11:48:58.721Z,13.1084
2023-03-24T11:50:00.851Z,13.0853
2023-03-24T11:51:02.852Z,13.0517
2023-03-24T11:52:04.815Z,13.0135
2023-03-24T11:53:06.822Z,12.9758
2023-03-24T11:54:08.778Z,12.9281
2023-03-24T11:55:10.862Z,12.8689
2023-03-24T11:56:12.855Z,12.8027
2023-03-24T11:58:16.761Z,12.6511
2023-03-24T11:59:18.756Z,12.5814
2023-03-24T12:00:20.786Z,12.5122
2023-03-24T12:01:22.806Z,12.4507
2023-03-24T12:02:24.858Z,12.3852
2023-03-24T12:04:28.669Z,12.2539
2023-03-24T12:05:30.707Z,12.1831
2023-03-24T12:06:32.665Z,12.1136
2023-03-24T12:07:34.653Z,12.0446
2023-03-24T12:08:36.706Z,11.9802
2023-03-24T12:09:38.658Z,11.9119
2023-03-24T12:10:40.768Z,11.8472
2023-03-24T12:11:42.713Z,11.7931
2023-03-24T12:12:44.720Z,11.7454
2023-03-24T12:14:48.565Z,11.6649
2023-03-24T12:18:56.723Z,11.5173
2023-03-24T12:19:58.760Z,11.4762
2023-03-24T12:26:10.113Z,11.2316
2023-03-24T12:28:14.004Z,11.1535
2023-03-24T12:29:16.063Z,11.1152
2023-03-24T12:30:18.030Z,11.0831
2023-03-24T12:31:20.051Z,11.0563
2023-03-24T12:32:22.143Z,11.0320
2023-03-24T12:33:24.167Z,11.0047
2023-03-24T12:34:26.301Z,10.9765
2023-03-24T12:35:28.374Z,10.9513
2023-03-24T12:36:30.412Z,10.9269
2023-03-24T12:42:43.983Z,10.7845
2023-03-24T12:43:46.349Z,10.7526
2023-03-24T12:54:06.104Z,10.4703
2023-03-24T12:55:08.170Z,10.4521
2023-03-24T12:56:10.161Z,10.4335
2023-03-24T12:57:12.383Z,10.4150
2023-03-24T12:58:14.428Z,10.3986
2023-03-24T13:01:20.171Z,10.3516
2023-03-24T13:03:23.991Z,10.3254
2023-03-24T13:04:26.020Z,10.3148
2023-03-24T13:05:28.044Z,10.3072
2023-03-24T13:06:30.014Z,10.3003
2023-03-24T13:07:39.508Z,10.2933
2023-03-24T13:08:32.711Z,10.2828
2023-03-24T13:09:34.745Z,10.2737
2023-03-24T13:11:38.636Z,10.2566
2023-03-24T13:12:40.695Z,10.2471
2023-03-24T13:13:42.686Z,10.2383
2023-03-24T13:14:44.692Z,10.2309
2023-03-24T13:15:46.835Z,10.2246
2023-03-24T13:16:49.091Z,10.2172
2023-03-24T13:17:51.200Z,10.2093
2023-03-24T13:18:53.186Z,10.2032
2023-03-24T13:19:55.160Z,10.2012
2023-03-24T13:20:57.192Z,10.1986
2023-03-24T13:21:59.256Z,10.1959
2023-03-24T13:23:01.251Z,10.1937
2023-03-24T13:24:03.232Z,10.1897
2023-03-24T13:25:05.312Z,10.1893
2023-03-24T13:26:07.356Z,10.1888
2023-03-24T13:27:09.350Z,10.1872
2023-03-24T13:28:11.389Z,10.1812
2023-03-24T13:29:13.351Z,10.1752
2023-03-24T13:30:15.416Z,10.1663
2023-03-24T13:31:17.529Z,10.1526
2023-03-24T13:32:19.566Z,10.1397
2023-03-24T13:34:23.413Z,10.1135
2023-03-24T13:36:27.326Z,10.0936
2023-03-24T13:37:29.395Z,10.0869
2023-03-24T13:38:31.342Z,10.0805
2023-03-24T13:39:33.353Z,10.0775
2023-03-24T13:40:35.393Z,10.0753
2023-03-24T13:41:37.369Z,10.0758
2023-03-24T13:42:39.338Z,10.0771
2023-03-24T13:43:41.339Z,10.0800
2023-03-24T13:44:43.328Z,10.0836
2023-03-24T13:45:45.375Z,10.0871
2023-03-24T13:46:47.344Z,10.0889
2023-03-24T13:47:49.382Z,10.0913
2023-03-24T13:48:51.470Z,10.0962
2023-03-24T13:49:53.462Z,10.1013
2023-03-24T13:51:57.279Z,10.1124
2023-03-24T13:52:59.346Z,10.1185
2023-03-24T13:54:01.346Z,10.1275
2023-03-24T13:55:03.371Z,10.1325
2023-03-24T13:56:05.364Z,10.1358
2023-03-24T13:57:07.362Z,10.1381
2023-03-24T13:58:09.350Z,10.1394
2023-03-24T13:59:11.307Z,10.1392
2023-03-24T14:00:13.285Z,10.1340
2023-03-24T14:01:15.379Z,10.1291
2023-03-24T14:02:17.443Z,10.1232
2023-03-24T14:05:25.115Z,10.1077
2023-03-24T14:06:27.111Z,10.1055
2023-03-24T14:07:29.086Z,10.1034
2023-03-24T14:08:31.066Z,10.0973
2023-03-24T14:09:33.088Z,10.0897
2023-03-24T14:10:35.109Z,10.0825
2023-03-24T14:12:39.113Z,10.0630
2023-03-24T14:13:41.107Z,10.0517
2023-03-24T14:14:43.111Z,10.0423
2023-03-24T14:15:45.324Z,10.0332
2023-03-24T14:16:47.347Z,10.0247
2023-03-24T14:17:49.354Z,10.0140
2023-03-24T14:18:51.386Z,10.0069
2023-03-24T14:19:53.414Z,9.9976
2023-03-24T14:20:55.428Z,9.9863
2023-03-24T14:21:57.409Z,9.9710
2023-03-24T14:22:59.436Z,9.9525
2023-03-24T14:24:01.510Z,9.9369
2023-03-24T14:27:07.268Z,9.8967
2023-03-24T14:28:09.257Z,9.8841
2023-03-24T14:29:11.286Z,9.8739
2023-03-24T14:30:13.251Z,9.8650
2023-03-24T14:31:15.323Z,9.8579
2023-03-24T14:32:20.429Z,9.8474
2023-03-24T14:33:18.480Z,9.8381
2023-03-24T14:34:20.494Z,9.8298
2023-03-24T14:36:24.280Z,9.8110
2023-03-24T14:39:29.917Z,9.7853
2023-03-24T14:40:31.853Z,9.7790
2023-03-24T14:41:33.886Z,9.7755
2023-03-24T14:42:35.904Z,9.7722
2023-03-24T14:43:37.918Z,9.7672
2023-03-24T14:44:39.928Z,9.7621
2023-03-24T14:45:41.932Z,9.7565
2023-03-24T14:47:45.824Z,9.7474
2023-03-24T14:48:48.001Z,9.7416
2023-03-24T14:49:49.973Z,9.7338
2023-03-24T14:50:52.050Z,9.7261
2023-03-24T14:51:54.024Z,9.7182
2023-03-24T14:54:59.693Z,9.6887
2023-03-24T14:56:01.669Z,9.6798
2023-03-24T14:57:03.682Z,9.6720
2023-03-24T14:59:07.680Z,9.6605
2023-03-24T15:00:11.451Z,9.6542
2023-03-24T15:01:13.713Z,9.6492
2023-03-24T15:02:15.913Z,9.6460
2023-03-24T15:03:17.970Z,9.6435
2023-03-24T15:04:19.991Z,9.6420
2023-03-24T15:05:23.160Z,9.6409
2023-03-24T15:06:25.668Z,9.6392
2023-03-24T15:07:27.734Z,9.6386
2023-03-24T15:08:29.744Z,9.6390
2023-03-24T15:09:31.726Z,9.6397
2023-03-24T15:10:33.681Z,9.6405
2023-03-24T15:12:37.564Z,9.6442
2023-03-24T15:14:41.415Z,9.6484
2023-03-24T15:15:43.430Z,9.6489
2023-03-24T15:16:45.405Z,9.6491
2023-03-24T15:17:47.446Z,9.6512
2023-03-24T15:18:59.857Z,9.6530
2023-03-24T15:19:52.961Z,9.6531
2023-03-24T15:20:55.044Z,9.6547
2023-03-24T15:21:57.016Z,9.6592
2023-03-24T15:22:59.018Z,9.6620
2023-03-24T15:24:01.032Z,9.6637
2023-03-24T15:26:04.940Z,9.6634
2023-03-24T15:27:06.969Z,9.6633
2023-03-24T15:28:09.001Z,9.6641
2023-03-24T15:29:10.942Z,9.6663
2023-03-24T15:31:14.824Z,9.6679
2023-03-24T15:33:18.633Z,9.6731
2023-03-24T15:34:20.606Z,9.6759
2023-03-24T15:35:22.736Z,9.6802
2023-03-24T15:36:24.704Z,9.6816
2023-03-24T15:37:26.763Z,9.6807
2023-03-24T15:38:28.712Z,9.6788
2023-03-24T15:40:32.550Z,9.6783
2023-03-24T15:42:36.379Z,9.6734
2023-03-24T15:43:38.365Z,9.6709
2023-03-24T15:44:40.372Z,9.6690
2023-03-24T15:46:44.292Z,9.6686
2023-03-24T15:47:46.292Z,9.6698
2023-03-24T15:48:48.345Z,9.6711
2023-03-24T15:49:50.386Z,9.6702
2023-03-24T15:50:52.343Z,9.6680
2023-03-24T15:51:54.326Z,9.6671
2023-03-24T15:52:56.274Z,9.6694
2023-03-24T15:53:58.264Z,9.6717
2023-03-24T15:55:00.299Z,9.6735
2023-03-24T15:56:09.778Z,9.6752
2023-03-24T15:57:10.470Z,9.6767
2023-03-24T15:58:12.456Z,9.6802
2023-03-24T16:00:16.256Z,9.6839
2023-03-24T16:01:18.237Z,9.6817
2023-03-24T16:02:20.225Z,9.6797
2023-03-24T16:03:22.298Z,9.6791
2023-03-24T16:04:24.391Z,9.6785
2023-03-24T16:05:26.336Z,9.6768
2023-03-24T16:06:28.363Z,9.6746
2023-03-24T16:07:30.381Z,9.6707
2023-03-24T16:08:32.371Z,9.6668
2023-03-24T16:09:34.374Z,9.6626
2023-03-24T16:11:38.155Z,9.6543
2023-03-24T16:12:40.315Z,9.6492
2023-03-24T16:14:44.175Z,9.6367
2023-03-24T16:15:46.164Z,9.6277
2023-03-24T16:16:48.240Z,9.6159
2023-03-24T16:17:50.366Z,9.6060
2023-03-24T16:18:52.319Z,9.5969
2023-03-24T16:19:54.285Z,9.5874
2023-03-24T16:20:56.278Z,9.5734
2023-03-24T16:21:58.259Z,9.5590
2023-03-24T16:23:00.222Z,9.5483
2023-03-24T16:26:05.852Z,9.5158
2023-03-24T16:27:07.914Z,9.4999
2023-03-24T16:28:09.896Z,9.4866
2023-03-24T16:29:11.904Z,9.4718
2023-03-24T16:30:13.927Z,9.4583
2023-03-24T16:31:15.919Z,9.4461
2023-03-24T16:32:17.954Z,9.4328
2023-03-24T16:33:19.970Z,9.4181
2023-03-24T16:36:25.647Z,9.3770
2023-03-24T16:37:27.683Z,9.3624
2023-03-24T16:38:29.640Z,9.3471
2023-03-24T16:40:33.420Z,9.3272
2023-03-24T16:41:35.453Z,9.3234
2023-03-24T16:42:37.426Z,9.3214
2023-03-24T16:44:41.332Z,9.3242
2023-03-24T16:45:43.320Z,9.3216
2023-03-24T16:46:46.555Z,9.3174
2023-03-24T16:50:54.780Z,9.3046
2023-03-24T16:52:58.622Z,9.2990
2023-03-24T16:55:02.460Z,9.2955
2023-03-24T16:56:04.502Z,9.2926
2023-03-24T16:57:06.459Z,9.2909
2023-03-24T16:58:08.480Z,9.2888
2023-03-24T16:59:10.459Z,9.2866
2023-03-24T17:00:12.474Z,9.2842
2023-03-24T17:01:14.469Z,9.2794
2023-03-24T17:04:20.223Z,9.2602
2023-03-24T17:05:22.260Z,9.2527
2023-03-24T17:06:24.261Z,9.2448
2023-03-24T17:08:28.077Z,9.2273
2023-03-24T17:09:30.066Z,9.2191
2023-03-24T17:10:32.084Z,9.2110
2023-03-24T17:11:34.085Z,9.1996
2023-03-24T17:12:36.128Z,9.1892
2023-03-24T17:13:38.259Z,9.1791
2023-03-24T17:14:40.308Z,9.1670
2023-03-24T17:15:42.288Z,9.1545
2023-03-24T17:18:48.030Z,9.1140
2023-03-24T17:19:49.995Z,9.1014
2023-03-24T17:22:55.766Z,9.0623
2023-03-24T17:23:57.795Z,9.0492
2023-03-24T17:24:59.809Z,9.0347
2023-03-24T17:26:01.764Z,9.0197
2023-03-24T17:27:03.780Z,9.0046
2023-03-24T17:28:05.787Z,8.9885
2023-03-24T17:32:13.334Z,8.9378
2023-03-24T17:33:15.377Z,8.9266
2023-03-24T17:35:17.835Z,8.9018
2023-03-24T17:36:19.844Z,8.8899
2023-03-24T17:37:21.793Z,8.8754
2023-03-24T17:38:23.760Z,8.8596
2023-03-24T17:39:25.771Z,8.8488
2023-03-24T17:40:27.767Z,8.8388
2023-03-24T17:41:29.739Z,8.8269
2023-03-24T17:42:31.689Z,8.8161
2023-03-24T17:43:33.700Z,8.8053
2023-03-24T17:44:35.704Z,8.7974
2023-03-24T17:45:37.695Z,8.7894
2023-03-24T17:46:39.698Z,8.7792
2023-03-24T17:47:41.725Z,8.7659
2023-03-24T17:48:46.270Z,8.7518
2023-03-24T17:49:46.848Z,8.7360
2023-03-24T17:50:49.101Z,8.7193
2023-03-24T17:51:51.401Z,8.7022
2023-03-24T17:52:53.479Z,8.6846
2023-03-24T17:53:55.536Z,8.6652
2023-03-24T17:54:57.505Z,8.6467
2023-03-24T17:55:59.541Z,8.6276
2023-03-24T17:57:01.604Z,8.6098
2023-03-24T17:58:03.673Z,8.5910
2023-03-24T18:01:09.469Z,8.5348
2023-03-24T18:02:11.497Z,8.5170
2023-03-24T18:03:13.553Z,8.4995
2023-03-24T18:04:15.662Z,8.4829
2023-03-24T18:05:17.673Z,8.4663
2023-03-24T18:06:19.812Z,8.4488
2023-03-24T18:07:21.918Z,8.4334
2023-03-24T18:09:25.851Z,8.4009
2023-03-24T18:10:27.790Z,8.3866
2023-03-24T18:11:29.824Z,8.3731
2023-03-24T18:12:31.821Z,8.3597
2023-03-24T18:13:33.815Z,8.3461
2023-03-24T18:14:35.888Z,8.3333
2023-03-24T18:17:41.850Z,8.2945
2023-03-24T18:20:47.717Z,8.2574
2023-03-24T18:21:49.779Z,8.2418
2023-03-24T18:22:51.785Z,8.2219
2023-03-24T18:24:55.679Z,8.1887
2023-03-24T18:25:57.719Z,8.1747
2023-03-24T18:26:59.749Z,8.1590
2023-03-24T18:28:01.766Z,8.1454
2023-03-24T18:29:03.794Z,8.1316
2023-03-24T18:30:05.810Z,8.1202
2023-03-24T18:31:07.807Z,8.1103
2023-03-24T18:32:09.936Z,8.0998
2023-03-24T18:33:11.940Z,8.0886
2023-03-24T18:34:13.957Z,8.0763
2023-03-24T18:35:16.017Z,8.0643
2023-03-24T18:36:18.133Z,8.0525
2023-03-24T18:38:22.081Z,8.0245
2023-03-24T18:39:24.158Z,8.0101
2023-03-24T18:40:26.145Z,7.9988
2023-03-24T18:41:28.189Z,7.9874
2023-03-24T18:42:30.228Z,7.9756
2023-03-24T18:43:32.234Z,7.9619
2023-03-24T18:44:34.315Z,7.9444
2023-03-24T18:45:36.383Z,7.9262
2023-03-24T18:46:37.140Z,7.9040
2023-03-24T18:47:39.203Z,7.8799
2023-03-24T18:48:41.284Z,7.8576
2023-03-24T18:50:45.133Z,7.8017
2023-03-24T18:51:47.185Z,7.7692
2023-03-24T18:52:49.211Z,7.7354
2023-03-24T18:54:53.073Z,7.6650
2023-03-24T18:55:55.068Z,7.6333
2023-03-24T18:56:57.179Z,7.5982
2023-03-24T18:57:59.191Z,7.5613
2023-03-24T18:59:01.196Z,7.5281
2023-03-24T19:00:03.184Z,7.4994
2023-03-24T19:01:05.449Z,7.4714
2023-03-24T19:02:07.533Z,7.4443
2023-03-24T19:03:09.682Z,7.4179
2023-03-24T19:04:11.789Z,7.3901
2023-03-24T19:05:13.790Z,7.3592
2023-03-24T19:06:15.796Z,7.3333
2023-03-24T19:07:17.830Z,7.3078
2023-03-24T19:08:19.966Z,7.2802
2023-03-24T19:09:22.034Z,7.2506
2023-03-24T19:10:24.050Z,7.2271
2023-03-24T19:11:26.048Z,7.2078
2023-03-24T19:12:28.095Z,7.1893
2023-03-24T19:13:30.146Z,7.1689
2023-03-24T19:14:32.180Z,7.1482
2023-03-24T19:15:34.240Z,7.1284
2023-03-24T19:16:36.336Z,7.1047
2023-03-24T19:17:38.488Z,7.0795
2023-03-24T19:19:42.386Z,7.0357
2023-03-24T19:21:46.377Z,7.0071
2023-03-24T19:22:48.396Z,6.9929
2023-03-24T19:23:52.624Z,6.9779
2023-03-24T19:24:50.711Z,6.9634
2023-03-24T19:25:52.713Z,6.9501
2023-03-24T19:26:54.722Z,6.9298
2023-03-24T19:27:56.739Z,6.9132
2023-03-24T19:28:58.776Z,6.8968
2023-03-24T19:30:00.788Z,6.8780
2023-03-24T19:31:02.797Z,6.8598
2023-03-24T19:32:04.817Z,6.8435
2023-03-24T19:33:06.851Z,6.8301
2023-03-24T19:34:08.848Z,6.8184
2023-03-24T19:36:12.758Z,6.7966
2023-03-24T19:38:16.705Z,6.7678
2023-03-24T19:39:18.758Z,6.7520
2023-03-24T19:40:20.842Z,6.7327
2023-03-24T19:41:22.872Z,6.7104
2023-03-24T19:42:24.877Z,6.6903
2023-03-24T19:44:36.307Z,6.6570
2023-03-24T19:46:31.522Z,6.6249
2023-03-24T19:47:33.717Z,6.6068
2023-03-24T19:48:35.854Z,6.5902
2023-03-24T19:49:37.969Z,6.5776
2023-03-24T19:51:41.932Z,6.5530
2023-03-24T19:52:44.040Z,6.5425
2023-03-24T19:53:46.129Z,6.5280
2023-03-24T19:55:50.217Z,6.5025
2023-03-24T19:56:52.607Z,6.4918
2023-03-24T19:57:54.689Z,6.4794
2023-03-24T19:58:56.758Z,6.4677
2023-03-24T19:59:58.795Z,6.4599
2023-03-24T20:01:00.846Z,6.4546
2023-03-24T20:03:04.812Z,6.4371
2023-03-24T20:04:06.861Z,6.4284
2023-03-24T20:05:08.876Z,6.4238
2023-03-24T20:06:10.873Z,6.4158
2023-03-24T20:08:14.847Z,6.4030
2023-03-24T20:09:16.888Z,6.3994
2023-03-24T20:11:20.864Z,6.3808
2023-03-24T20:12:22.909Z,6.3676
2023-03-24T20:13:24.979Z,6.3536
2023-03-24T20:14:26.983Z,6.3433
2023-03-24T20:15:29.037Z,6.3364
2023-03-24T20:16:31.066Z,6.3287
2023-03-24T20:18:35.015Z,6.3131
2023-03-24T20:19:37.080Z,6.3110
2023-03-24T20:20:39.124Z,6.3063
2023-03-24T20:21:41.187Z,6.3009
2023-03-24T20:22:43.195Z,6.2874
2023-03-24T20:23:45.268Z,6.2758
2023-03-24T20:24:47.255Z,6.2668
2023-03-24T20:25:49.598Z,6.2583
2023-03-24T20:26:52.025Z,6.2509
2023-03-24T20:27:54.091Z,6.2460
2023-03-24T20:28:56.106Z,6.2436
2023-03-24T20:29:58.214Z,6.2483
2023-03-24T20:31:00.368Z,6.2574
2023-03-24T20:32:02.513Z,6.2684
2023-03-24T20:36:10.868Z,6.3027
2023-03-24T20:37:12.965Z,6.3043
2023-03-24T20:38:15.101Z,6.3066
2023-03-24T20:39:17.188Z,6.3072
2023-03-24T20:41:21.359Z,6.3073
2023-03-24T20:42:23.415Z,6.3070
2023-03-24T20:43:25.495Z,6.3082
2023-03-24T20:44:27.484Z,6.3087
2023-03-24T20:46:31.880Z,6.3109
2023-03-24T20:47:34.496Z,6.3121
2023-03-24T20:48:36.537Z,6.3112
2023-03-24T20:49:38.571Z,6.3111
2023-03-24T20:50:41.028Z,6.3109
2023-03-24T20:51:43.184Z,6.3122
2023-03-24T20:52:45.197Z,6.3152
2023-03-24T20:54:49.043Z,6.3129
2023-03-24T20:55:51.322Z,6.3077
2023-03-24T20:56:53.613Z,6.3046
2023-03-24T20:57:55.599Z,6.3050
2023-03-24T20:58:57.598Z,6.3031
2023-03-24T21:02:03.655Z,6.3114
2023-03-24T21:03:05.820Z,6.3170
2023-03-24T21:04:09.230Z,6.3204
2023-03-24T21:05:11.564Z,6.3201
2023-03-24T21:06:13.632Z,6.3150
2023-03-24T21:07:15.660Z,6.3054
2023-03-24T21:09:19.500Z,6.2918
2023-03-24T21:11:23.438Z,6.3085
2023-03-24T21:12:25.464Z,6.3214
2023-03-24T21:13:37.009Z,6.3286
2023-03-24T21:14:31.004Z,6.3309
2023-03-24T21:15:33.079Z,6.3295
2023-03-24T21:16:35.153Z,6.3332
2023-03-24T21:19:41.001Z,6.3521
2023-03-24T21:20:43.013Z,6.3640
2023-03-24T21:21:45.093Z,6.3731
2023-03-24T21:22:47.183Z,6.3809
2023-03-24T21:23:49.197Z,6.3916
2023-03-24T21:25:53.045Z,6.4224
2023-03-24T21:26:55.093Z,6.4332
2023-03-24T21:27:57.112Z,6.4450
2023-03-24T21:28:59.153Z,6.4545
2023-03-24T21:30:01.148Z,6.4605
2023-03-24T21:31:03.192Z,6.4668
2023-03-24T21:32:05.260Z,6.4723
2023-03-24T21:33:07.386Z,6.4740
2023-03-24T21:36:13.414Z,6.4737
2023-03-24T21:37:15.455Z,6.4741
2023-03-24T21:38:17.468Z,6.4711
2023-03-24T21:39:19.632Z,6.4692
2023-03-24T21:40:21.709Z,6.4670
2023-03-24T21:43:27.431Z,6.4333
2023-03-24T21:44:29.495Z,6.4251
2023-03-24T21:45:31.512Z,6.4242
2023-03-24T21:46:33.544Z,6.4223
2023-03-24T21:47:35.633Z,6.4184
2023-03-24T21:48:37.688Z,6.4136
2023-03-24T21:49:39.703Z,6.4112
2023-03-24T21:50:41.711Z,6.4129
2023-03-24T21:51:43.722Z,6.4129
2023-03-24T21:52:45.688Z,6.4097
2023-03-24T21:53:47.803Z,6.4046
2023-03-24T21:54:49.803Z,6.3990
2023-03-24T21:55:52.460Z,6.3974
2023-03-24T21:56:54.759Z,6.4011
2023-03-24T21:58:58.592Z,6.4179
2023-03-24T22:00:00.636Z,6.4236
2023-03-24T22:01:02.627Z,6.4276
2023-03-24T22:02:04.674Z,6.4298
2023-03-24T22:04:08.665Z,6.4372
2023-03-24T22:05:11.049Z,6.4391
2023-03-24T22:06:13.054Z,6.4409
2023-03-24T22:07:15.103Z,6.4421
2023-03-24T22:08:17.093Z,6.4404
2023-03-24T22:09:19.144Z,6.4383
2023-03-24T22:10:21.215Z,6.4357
2023-03-24T22:12:25.107Z,6.4349
2023-03-24T22:15:32.799Z,6.4462
2023-03-24T22:17:33.439Z,6.4693
2023-03-24T22:18:35.450Z,6.4840
2023-03-24T22:19:37.438Z,6.4987
2023-03-24T22:20:39.463Z,6.5146
2023-03-24T22:21:41.444Z,6.5305
2023-03-24T22:22:43.457Z,6.5438
2023-03-24T22:23:45.495Z,6.5516
2023-03-24T22:26:51.501Z,6.5570
2023-03-24T22:27:53.510Z,6.5519
2023-03-24T22:28:55.565Z,6.5450
2023-03-24T22:30:59.528Z,6.5355
2023-03-24T22:32:01.577Z,6.5381
2023-03-24T22:33:03.608Z,6.5470
2023-03-24T22:34:05.734Z,6.5598
2023-03-24T22:35:07.734Z,6.5764
2023-03-24T22:40:17.191Z,6.6817
2023-03-24T22:41:19.230Z,6.7025
2023-03-24T22:42:21.236Z,6.7248
2023-03-24T22:46:28.913Z,6.8228
2023-03-24T22:47:31.012Z,6.8447
2023-03-24T22:48:33.057Z,6.8685
2023-03-24T22:50:36.960Z,6.9134
2023-03-24T22:51:38.962Z,6.9411
2023-03-24T22:52:40.977Z,6.9642
2023-03-24T22:53:42.984Z,6.9867
2023-03-24T22:55:46.890Z,7.0303
2023-03-24T22:56:49.034Z,7.0517
2023-03-24T22:57:51.128Z,7.0709
2023-03-24T22:58:53.245Z,7.0871
2023-03-24T22:59:55.220Z,7.1012
2023-03-24T23:00:57.227Z,7.1120
2023-03-24T23:02:08.820Z,7.1214
2023-03-24T23:03:02.775Z,7.1293
2023-03-24T23:04:04.802Z,7.1372
2023-03-24T23:06:08.661Z,7.1461
2023-03-24T23:07:10.691Z,7.1505
2023-03-24T23:08:12.755Z,7.1522
2023-03-24T23:09:14.783Z,7.1536
2023-03-24T23:10:16.792Z,7.1554
2023-03-24T23:11:18.869Z,7.1569
2023-03-24T23:14:24.590Z,7.1585
2023-03-24T23:15:26.660Z,7.1588
2023-03-24T23:16:28.735Z,7.1572
2023-03-24T23:17:30.736Z,7.1561
2023-03-24T23:20:36.593Z,7.1572
2023-03-24T23:21:38.610Z,7.1593
2023-03-24T23:22:41.450Z,7.1617
2023-03-24T23:23:43.532Z,7.1647
2023-03-24T23:24:45.499Z,7.1679
2023-03-24T23:25:47.557Z,7.1718
2023-03-24T23:26:49.555Z,7.1743
2023-03-24T23:27:51.615Z,7.1772
2023-03-24T23:28:53.660Z,7.1820
2023-03-24T23:29:55.675Z,7.1887
2023-03-24T23:30:57.660Z,7.1971
2023-03-24T23:31:59.759Z,7.2062
2023-03-24T23:34:03.608Z,7.2245
2023-03-24T23:35:05.683Z,7.2333
2023-03-24T23:36:07.873Z,7.2420
2023-03-24T23:37:09.884Z,7.2505
2023-03-24T23:38:11.898Z,7.2575
2023-03-24T23:39:13.994Z,7.2639
2023-03-24T23:40:16.185Z,7.2679
2023-03-24T23:41:18.246Z,7.2743
2023-03-24T23:42:20.262Z,7.2789
2023-03-24T23:43:22.310Z,7.2812
2023-03-24T23:45:26.186Z,7.2834
2023-03-24T23:46:28.288Z,7.2818
2023-03-24T23:47:30.405Z,7.2776
2023-03-24T23:48:32.538Z,7.2699
2023-03-24T23:49:34.587Z,7.2589
2023-03-24T23:50:36.647Z,7.2460
2023-03-24T23:51:38.716Z,7.2313
2023-03-24T23:52:40.750Z,7.2151
2023-03-24T23:54:44.641Z,7.1827
2023-03-24T23:55:46.664Z,7.1686
2023-03-24T23:56:48.696Z,7.1549
2023-03-24T23:57:50.738Z,7.1440
2023-03-24T23:59:54.622Z,7.1273
